createdAt,value
2017-04-01T00:01:05.777Z,16.33
2017-04-01T00:02:19.036Z,16.2
2017-04-01T00:03:32.259Z,16.12
2017-04-01T00:04:45.474Z,16.08
2017-04-01T00:05:58.195Z,16.09
2017-04-01T00:07:11.436Z,16.05
2017-04-01T00:08:24.655Z,15.96
2017-04-01T00:09:37.385Z,16.02
2017-04-01T00:10:50.105Z,16.05
2017-04-01T00:12:03.387Z,16.15
2017-04-01T00:13:15.600Z,16.21
2017-04-01T00:14:28.347Z,16.31
2017-04-01T00:15:41.058Z,16.34
2017-04-01T00:16:53.757Z,16.35
2017-04-01T00:18:07.012Z,16.38
2017-04-01T00:19:19.722Z,16.41
2017-04-01T00:20:32.484Z,16.27
2017-04-01T00:21:45.709Z,16.28
2017-04-01T00:22:58.974Z,16.31
2017-04-01T00:24:11.684Z,16.07
2017-04-01T00:25:24.395Z,16.11
2017-04-01T00:26:37.649Z,16.08
2017-04-01T00:27:50.894Z,16.08
2017-04-01T00:29:04.109Z,16.12
2017-04-01T00:30:17.344Z,16.04
2017-04-01T00:31:30.074Z,16.05
2017-04-01T00:32:43.291Z,16.11
2017-04-01T00:33:56.529Z,16.09
2017-04-01T00:35:09.764Z,16.07
2017-04-01T00:36:23.044Z,16.08
2017-04-01T00:37:35.760Z,16.04
2017-04-01T00:38:48.986Z,16.11
2017-04-01T00:40:02.212Z,16.11
2017-04-01T00:41:14.962Z,16.08
2017-04-01T00:42:28.224Z,16
2017-04-01T00:43:41.721Z,15.96
2017-04-01T00:44:55.028Z,15.97
2017-04-01T00:46:08.245Z,15.97
2017-04-01T00:47:21.473Z,16.05
2017-04-01T00:48:33.197Z,16.05
2017-04-01T00:49:46.405Z,16.05
2017-04-01T00:50:59.119Z,16.02
2017-04-01T00:52:12.374Z,16.09
2017-04-01T00:53:25.572Z,16.04
2017-04-01T00:54:38.269Z,16.12
2017-04-01T00:55:51.535Z,16.28
2017-04-01T00:57:04.246Z,16.11
2017-04-01T00:58:17.506Z,16.11
2017-04-01T00:59:29.683Z,16.27
2017-04-01T01:00:42.424Z,16.07
2017-04-01T01:01:55.675Z,16.07
2017-04-01T01:03:08.904Z,16.08
2017-04-01T01:04:22.137Z,16.01
2017-04-01T01:05:35.393Z,16.01
2017-04-01T01:06:48.624Z,15.97
2017-04-01T01:08:01.845Z,16.02
2017-04-01T01:09:15.051Z,15.96
2017-04-01T01:10:27.769Z,16.05
2017-04-01T01:11:41.002Z,16.05
2017-04-01T01:12:53.207Z,16.07
2017-04-01T01:14:06.425Z,16.04
2017-04-01T01:15:19.618Z,15.96
2017-04-01T01:16:32.859Z,15.94
2017-04-01T01:17:45.559Z,15.97
2017-04-01T01:18:58.811Z,15.9
2017-04-01T01:20:12.012Z,15.86
2017-04-01T01:21:25.263Z,15.83
2017-04-01T01:22:37.964Z,15.94
2017-04-01T01:23:50.661Z,15.94
2017-04-01T01:25:03.877Z,15.86
2017-04-01T01:26:17.067Z,15.9
2017-04-01T01:27:30.329Z,15.84
2017-04-01T01:28:43.556Z,15.86
2017-04-01T01:29:56.786Z,15.89
2017-04-01T01:31:10.017Z,15.89
2017-04-01T01:32:23.324Z,15.94
2017-04-01T01:33:36.535Z,15.97
2017-04-01T01:34:49.753Z,15.94
2017-04-01T01:36:02.500Z,15.94
2017-04-01T01:37:15.752Z,15.94
2017-04-01T01:38:28.994Z,15.97
2017-04-01T01:39:41.727Z,15.9
2017-04-01T01:40:54.942Z,16.02
2017-04-01T01:42:07.134Z,15.96
2017-04-01T01:43:20.390Z,15.93
2017-04-01T01:44:33.602Z,15.93
2017-04-01T01:45:46.863Z,16.05
2017-04-01T01:47:00.071Z,16.07
2017-04-01T01:48:12.292Z,16.04
2017-04-01T01:49:25.548Z,16.05
2017-04-01T01:50:38.792Z,16.08
2017-04-01T01:51:51.492Z,16.05
2017-04-01T01:53:04.765Z,16.02
2017-04-01T01:54:18.017Z,16.08
2017-04-01T01:55:31.210Z,16.12
2017-04-01T01:56:44.424Z,16.21
2017-04-01T01:57:57.638Z,16.17
2017-04-01T01:59:10.865Z,16.24
2017-04-01T02:00:24.097Z,16.31
2017-04-01T02:01:36.837Z,16.33
2017-04-01T02:02:50.074Z,16.3
2017-04-01T02:04:02.762Z,16.21
2017-04-01T02:05:15.481Z,16.31
2017-04-01T02:06:28.754Z,16.33
2017-04-01T02:07:41.503Z,16.34
2017-04-01T02:08:54.769Z,16.42
2017-04-01T02:10:08.052Z,16.28
2017-04-01T02:11:20.771Z,16.33
2017-04-01T02:12:33.490Z,16.31
2017-04-01T02:13:46.718Z,16.25
2017-04-01T02:14:59.451Z,16.34
2017-04-01T02:16:12.720Z,16.23
2017-04-01T02:17:25.939Z,16.3
2017-04-01T02:18:39.164Z,16.27
2017-04-01T02:19:52.393Z,16.24
2017-04-01T02:21:05.610Z,16.17
2017-04-01T02:22:18.853Z,16.14
2017-04-01T02:23:31.568Z,16.15
2017-04-01T02:24:44.250Z,16.11
2017-04-01T02:25:56.947Z,16.14
2017-04-01T02:27:10.195Z,16.07
2017-04-01T02:28:23.433Z,16.11
2017-04-01T02:29:36.637Z,16.09
2017-04-01T02:30:49.865Z,16.02
2017-04-01T02:32:03.128Z,16.04
2017-04-01T02:33:16.340Z,16.02
2017-04-01T02:34:29.036Z,16.05
2017-04-01T02:35:41.778Z,16.01
2017-04-01T02:36:53.971Z,16.09
2017-04-01T02:38:07.208Z,16.07
2017-04-01T02:39:20.473Z,16.01
2017-04-01T02:40:33.740Z,15.96
2017-04-01T02:41:46.517Z,15.83
2017-04-01T02:42:59.788Z,15.9
2017-04-01T02:44:13.002Z,15.89
2017-04-01T02:45:25.232Z,15.8
2017-04-01T02:46:37.924Z,15.84
2017-04-01T02:47:50.639Z,15.83
2017-04-01T02:49:03.887Z,15.82
2017-04-01T02:50:17.101Z,15.75
2017-04-01T02:51:29.285Z,15.82
2017-04-01T02:52:41.490Z,15.82
2017-04-01T02:53:54.182Z,15.78
2017-04-01T02:55:07.381Z,15.72
2017-04-01T02:56:20.623Z,15.64
2017-04-01T02:57:33.885Z,15.75
2017-04-01T02:58:45.552Z,15.67
2017-04-01T02:59:58.280Z,15.67
2017-04-01T03:01:11.544Z,15.51
2017-04-01T03:02:24.778Z,15.5
2017-04-01T03:03:37.984Z,15.57
2017-04-01T03:04:51.222Z,15.59
2017-04-01T03:06:04.491Z,15.57
2017-04-01T03:07:16.695Z,15.38
2017-04-01T03:08:29.941Z,15.41
2017-04-01T03:09:43.178Z,15.38
2017-04-01T03:10:56.402Z,15.38
2017-04-01T03:12:09.681Z,15.41
2017-04-01T03:13:22.418Z,15.44
2017-04-01T03:14:35.599Z,15.41
2017-04-01T03:15:48.824Z,15.44
2017-04-01T03:17:02.065Z,15.51
2017-04-01T03:18:14.791Z,15.41
2017-04-01T03:19:27.486Z,15.38
2017-04-01T03:20:40.715Z,15.39
2017-04-01T03:21:53.915Z,15.46
2017-04-01T03:23:06.656Z,15.5
2017-04-01T03:24:19.919Z,15.5
2017-04-01T03:25:32.666Z,15.51
2017-04-01T03:26:45.384Z,15.62
2017-04-01T03:27:58.641Z,15.64
2017-04-01T03:29:11.845Z,15.62
2017-04-01T03:30:25.068Z,15.72
2017-04-01T03:31:38.301Z,15.8
2017-04-01T03:32:51.002Z,15.89
2017-04-01T03:34:03.734Z,15.83
2017-04-01T03:35:17.000Z,15.92
2017-04-01T03:36:30.264Z,15.96
2017-04-01T03:37:42.958Z,16.07
2017-04-01T03:38:55.678Z,15.96
2017-04-01T03:40:08.391Z,16.04
2017-04-01T03:41:21.098Z,16.08
2017-04-01T03:42:34.343Z,16.14
2017-04-01T03:43:47.600Z,16.07
2017-04-01T03:45:00.844Z,16.14
2017-04-01T03:46:14.082Z,16.11
2017-04-01T03:47:26.778Z,16.33
2017-04-01T03:48:39.992Z,16.23
2017-04-01T03:49:53.272Z,16.31
2017-04-01T03:51:06.029Z,16.41
2017-04-01T03:52:19.288Z,16.39
2017-04-01T03:53:32.482Z,16.34
2017-04-01T03:54:44.679Z,16.35
2017-04-01T03:55:57.873Z,16.43
2017-04-01T03:57:11.085Z,16.46
2017-04-01T03:58:23.794Z,16.45
2017-04-01T03:59:37.005Z,16.5
2017-04-01T04:00:50.241Z,16.49
2017-04-01T04:02:03.491Z,16.56
2017-04-01T04:03:16.709Z,16.5
2017-04-01T04:04:29.928Z,16.5
2017-04-01T04:05:43.166Z,16.5
2017-04-01T04:06:56.426Z,16.58
2017-04-01T04:08:09.130Z,16.53
2017-04-01T04:09:22.322Z,16.52
2017-04-01T04:10:35.574Z,16.52
2017-04-01T04:11:47.808Z,16.52
2017-04-01T04:13:00.489Z,16.6
2017-04-01T04:14:13.993Z,16.63
2017-04-01T04:15:27.253Z,16.61
2017-04-01T04:16:40.504Z,16.7
2017-04-01T04:17:53.719Z,16.71
2017-04-01T04:19:06.943Z,16.68
2017-04-01T04:20:20.190Z,16.73
2017-04-01T04:21:33.423Z,16.76
2017-04-01T04:22:46.699Z,16.71
2017-04-01T04:23:59.925Z,16.78
2017-04-01T04:25:13.140Z,16.68
2017-04-01T04:26:25.883Z,16.6
2017-04-01T04:27:39.131Z,16.68
2017-04-01T04:28:52.343Z,16.82
2017-04-01T04:30:05.595Z,16.75
2017-04-01T04:31:18.820Z,16.66
2017-04-01T04:32:31.516Z,16.67
2017-04-01T04:33:44.717Z,16.58
2017-04-01T04:34:57.930Z,16.48
2017-04-01T04:36:10.623Z,16.48
2017-04-01T04:37:23.856Z,16.5
2017-04-01T04:38:36.588Z,16.43
2017-04-01T04:39:49.811Z,16.53
2017-04-01T04:41:03.050Z,16.5
2017-04-01T04:42:16.311Z,16.46
2017-04-01T04:43:29.543Z,16.56
2017-04-01T04:44:42.779Z,16.57
2017-04-01T04:45:56.033Z,16.58
2017-04-01T04:47:08.725Z,16.53
2017-04-01T04:48:21.982Z,16.39
2017-04-01T04:49:35.195Z,16.35
2017-04-01T04:50:48.440Z,16.33
2017-04-01T04:52:01.669Z,16.31
2017-04-01T04:53:14.934Z,16.38
2017-04-01T04:54:27.648Z,16.24
2017-04-01T04:55:40.874Z,16.34
2017-04-01T04:56:54.111Z,16.12
2017-04-01T04:58:06.855Z,16.21
2017-04-01T04:59:20.128Z,16.11
2017-04-01T05:00:33.357Z,16.08
2017-04-01T05:01:46.573Z,16.04
2017-04-01T05:02:59.301Z,16.17
2017-04-01T05:04:12.047Z,16.2
2017-04-01T05:05:25.283Z,16.15
2017-04-01T05:06:38.031Z,16.2
2017-04-01T05:07:51.237Z,16.23
2017-04-01T05:09:04.428Z,16.27
2017-04-01T05:10:17.650Z,16.33
2017-04-01T05:11:30.923Z,16.48
2017-04-01T05:12:44.147Z,16.48
2017-04-01T05:13:56.891Z,16.45
2017-04-01T05:15:10.121Z,16.49
2017-04-01T05:16:22.345Z,16.49
2017-04-01T05:17:35.097Z,16.58
2017-04-01T05:18:47.849Z,16.63
2017-04-01T05:20:01.073Z,16.58
2017-04-01T05:21:13.766Z,16.61
2017-04-01T05:22:26.997Z,16.61
2017-04-01T05:23:39.691Z,16.6
2017-04-01T05:24:52.890Z,16.7
2017-04-01T05:26:06.107Z,16.68
2017-04-01T05:27:19.313Z,16.67
2017-04-01T05:28:32.546Z,16.71
2017-04-01T05:29:45.774Z,16.7
2017-04-01T05:30:58.997Z,16.66
2017-04-01T05:32:11.768Z,16.61
2017-04-01T05:33:25.014Z,16.61
2017-04-01T05:34:38.214Z,16.63
2017-04-01T05:35:50.917Z,16.49
2017-04-01T05:37:03.647Z,16.64
2017-04-01T05:38:16.397Z,16.61
2017-04-01T05:39:29.637Z,16.57
2017-04-01T05:40:42.889Z,16.58
2017-04-01T05:41:56.154Z,16.64
2017-04-01T05:43:09.373Z,16.67
2017-04-01T05:44:22.100Z,16.67
2017-04-01T05:45:34.853Z,16.61
2017-04-01T05:46:48.171Z,16.49
2017-04-01T05:48:00.923Z,16.25
2017-04-01T05:49:13.631Z,16.05
2017-04-01T05:50:26.877Z,15.96
2017-04-01T05:51:40.103Z,16.01
2017-04-01T05:52:53.333Z,15.9
2017-04-01T05:54:05.561Z,15.94
2017-04-01T05:55:18.298Z,15.97
2017-04-01T05:56:31.572Z,15.83
2017-04-01T05:57:44.829Z,15.84
2017-04-01T05:58:58.058Z,15.65
2017-04-01T06:00:10.770Z,15.56
2017-04-01T06:01:24.004Z,15.56
2017-04-01T06:02:37.226Z,15.46
2017-04-01T06:03:50.657Z,15.36
2017-04-01T06:05:03.895Z,15.43
2017-04-01T06:06:17.121Z,15.34
2017-04-01T06:07:29.858Z,15.39
2017-04-01T06:08:43.093Z,15.35
2017-04-01T06:09:56.295Z,15.34
2017-04-01T06:11:09.004Z,15.21
2017-04-01T06:12:22.224Z,15.25
2017-04-01T06:13:35.478Z,15.21
2017-04-01T06:14:48.755Z,15.23
2017-04-01T06:16:01.489Z,15.21
2017-04-01T06:17:14.756Z,15.27
2017-04-01T06:18:27.490Z,15.2
2017-04-01T06:19:40.721Z,15.25
2017-04-01T06:20:53.956Z,15.21
2017-04-01T06:22:07.178Z,15.34
2017-04-01T06:23:20.382Z,15.31
2017-04-01T06:24:33.639Z,15.29
2017-04-01T06:25:46.866Z,15.28
2017-04-01T06:27:00.083Z,15.31
2017-04-01T06:28:13.312Z,15.32
2017-04-01T06:29:26.524Z,15.35
2017-04-01T06:30:39.764Z,15.44
2017-04-01T06:31:53.005Z,15.38
2017-04-01T06:33:06.248Z,15.43
2017-04-01T06:34:19.447Z,15.54
2017-04-01T06:35:32.137Z,15.56
2017-04-01T06:36:44.850Z,15.67
2017-04-01T06:37:56.509Z,15.64
2017-04-01T06:39:09.780Z,15.68
2017-04-01T06:40:23.023Z,15.75
2017-04-01T06:41:36.264Z,15.76
2017-04-01T06:42:48.976Z,15.78
2017-04-01T06:44:02.215Z,15.72
2017-04-01T06:45:14.970Z,15.83
2017-04-01T06:46:28.181Z,15.89
2017-04-01T06:47:41.419Z,15.86
2017-04-01T06:48:54.660Z,15.9
2017-04-01T06:50:07.920Z,15.93
2017-04-01T06:51:20.110Z,15.87
2017-04-01T06:52:33.334Z,15.9
2017-04-01T06:53:46.049Z,15.86
2017-04-01T06:54:59.321Z,15.9
2017-04-01T06:56:11.601Z,15.97
2017-04-01T06:57:24.819Z,15.96
2017-04-01T06:58:38.059Z,16.07
2017-04-01T06:59:51.303Z,16.07
2017-04-01T07:01:04.025Z,16.08
2017-04-01T07:02:17.291Z,16.05
2017-04-01T07:03:29.506Z,16.04
2017-04-01T07:04:42.264Z,16.07
2017-04-01T07:05:55.557Z,16.07
2017-04-01T07:07:08.271Z,16.04
2017-04-01T07:08:21.517Z,16.01
2017-04-01T07:09:34.239Z,15.93
2017-04-01T07:10:47.444Z,16.02
2017-04-01T07:12:00.696Z,16.04
2017-04-01T07:13:13.913Z,16.12
2017-04-01T07:14:27.122Z,16.3
2017-04-01T07:15:40.330Z,16.34
2017-04-01T07:16:53.545Z,16.33
2017-04-01T07:18:06.779Z,16.3
2017-04-01T07:19:19.988Z,16.38
2017-04-01T07:20:32.728Z,16.38
2017-04-01T07:21:44.937Z,16.39
2017-04-01T07:22:58.162Z,16.38
2017-04-01T07:24:10.905Z,16.42
2017-04-01T07:25:24.129Z,16.27
2017-04-01T07:26:37.386Z,16.38
2017-04-01T07:27:50.613Z,16.38
2017-04-01T07:29:03.895Z,16.38
2017-04-01T07:30:16.116Z,16.31
2017-04-01T07:31:28.839Z,16.17
2017-04-01T07:32:42.074Z,16.08
2017-04-01T07:33:54.787Z,16.12
2017-04-01T07:35:07.498Z,15.96
2017-04-01T07:36:20.719Z,16
2017-04-01T07:37:33.988Z,16.07
2017-04-01T07:38:47.225Z,16.05
2017-04-01T07:39:59.957Z,16.07
2017-04-01T07:41:12.166Z,16.11
2017-04-01T07:42:25.401Z,16.25
2017-04-01T07:43:38.613Z,16.17
2017-04-01T07:44:51.825Z,16.24
2017-04-01T07:46:05.027Z,16.28
2017-04-01T07:47:18.262Z,16.39
2017-04-01T07:48:31.525Z,16.3
2017-04-01T07:49:44.753Z,16.34
2017-04-01T07:50:56.954Z,16.33
2017-04-01T07:52:09.668Z,16.35
2017-04-01T07:53:22.929Z,16.39
2017-04-01T07:54:36.132Z,16.46
2017-04-01T07:55:48.867Z,16.42
2017-04-01T07:57:02.125Z,16.42
2017-04-01T07:58:15.396Z,16.39
2017-04-01T07:59:28.128Z,16.42
2017-04-01T08:00:40.816Z,16.45
2017-04-01T08:01:52.982Z,16.45
2017-04-01T08:03:06.257Z,16.46
2017-04-01T08:04:19.483Z,16.45
2017-04-01T08:05:32.704Z,16.48
2017-04-01T08:06:45.966Z,16.45
2017-04-01T08:07:59.192Z,16.43
2017-04-01T08:09:11.393Z,16.39
2017-04-01T08:10:24.121Z,16.43
2017-04-01T08:11:37.367Z,16.48
2017-04-01T08:12:50.581Z,16.46
2017-04-01T08:14:03.826Z,16.5
2017-04-01T08:15:16.587Z,16.49
2017-04-01T08:16:29.801Z,16.53
2017-04-01T08:17:43.249Z,16.49
2017-04-01T08:18:56.456Z,16.52
2017-04-01T08:20:09.190Z,16.53
2017-04-01T08:21:22.442Z,16.58
2017-04-01T08:22:35.704Z,16.6
2017-04-01T08:23:48.936Z,16.58
2017-04-01T08:25:02.190Z,16.63
2017-04-01T08:26:15.451Z,16.6
2017-04-01T08:27:28.714Z,16.66
2017-04-01T08:28:41.979Z,16.64
2017-04-01T08:29:55.213Z,16.56
2017-04-01T08:31:08.451Z,16.6
2017-04-01T08:32:21.694Z,16.6
2017-04-01T08:33:34.962Z,16.58
2017-04-01T08:34:47.705Z,16.58
2017-04-01T08:36:00.941Z,16.63
2017-04-01T08:37:14.146Z,16.6
2017-04-01T08:38:26.917Z,16.6
2017-04-01T08:39:39.672Z,16.6
2017-04-01T08:40:52.917Z,16.67
2017-04-01T08:42:06.156Z,16.67
2017-04-01T08:43:19.350Z,16.57
2017-04-01T08:44:32.590Z,16.58
2017-04-01T08:45:45.854Z,16.66
2017-04-01T08:46:58.559Z,16.63
2017-04-01T08:48:11.781Z,16.67
2017-04-01T08:49:25.010Z,16.7
2017-04-01T08:50:38.231Z,16.81
2017-04-01T08:51:51.441Z,16.76
2017-04-01T08:53:04.662Z,16.79
2017-04-01T08:54:17.884Z,16.71
2017-04-01T08:55:31.101Z,16.67
2017-04-01T08:56:44.330Z,16.73
2017-04-01T08:57:57.598Z,16.73
2017-04-01T08:59:10.853Z,16.78
2017-04-01T09:00:23.580Z,16.73
2017-04-01T09:01:36.802Z,16.71
2017-04-01T09:02:50.016Z,16.75
2017-04-01T09:04:02.743Z,16.73
2017-04-01T09:05:15.464Z,16.79
2017-04-01T09:06:28.679Z,16.68
2017-04-01T09:07:41.870Z,16.73
2017-04-01T09:08:55.086Z,16.68
2017-04-01T09:10:08.328Z,16.7
2017-04-01T09:11:21.578Z,16.73
2017-04-01T09:12:34.855Z,16.78
2017-04-01T09:13:48.093Z,16.75
2017-04-01T09:15:01.338Z,16.71
2017-04-01T09:16:14.587Z,16.79
2017-04-01T09:17:27.842Z,16.76
2017-04-01T09:18:40.544Z,16.78
2017-04-01T09:19:53.725Z,16.76
2017-04-01T09:21:06.983Z,16.68
2017-04-01T09:22:19.674Z,16.78
2017-04-01T09:23:32.954Z,16.76
2017-04-01T09:24:46.165Z,16.7
2017-04-01T09:25:58.875Z,16.75
2017-04-01T09:27:12.090Z,16.73
2017-04-01T09:28:25.309Z,16.73
2017-04-01T09:29:38.558Z,16.73
2017-04-01T09:30:51.818Z,16.63
2017-04-01T09:32:05.086Z,16.63
2017-04-01T09:33:18.297Z,16.66
2017-04-01T09:34:30.968Z,16.63
2017-04-01T09:35:43.687Z,16.6
2017-04-01T09:36:56.890Z,16.61
2017-04-01T09:38:10.151Z,16.7
2017-04-01T09:39:23.364Z,16.6
2017-04-01T09:40:36.056Z,16.64
2017-04-01T09:41:49.264Z,16.6
2017-04-01T09:43:02.509Z,16.67
2017-04-01T09:44:15.224Z,16.68
2017-04-01T09:45:27.950Z,16.73
2017-04-01T09:46:40.705Z,16.81
2017-04-01T09:47:53.935Z,16.86
2017-04-01T09:49:06.621Z,16.81
2017-04-01T09:50:19.319Z,16.86
2017-04-01T09:51:32.535Z,17.01
2017-04-01T09:52:45.268Z,17.12
2017-04-01T09:53:58.528Z,17.19
2017-04-01T09:55:10.741Z,17.19
2017-04-01T09:56:23.462Z,17.23
2017-04-01T09:57:36.700Z,17.31
2017-04-01T09:58:48.905Z,17.54
2017-04-01T10:00:02.144Z,17.75
2017-04-01T10:01:15.405Z,17.99
2017-04-01T10:02:28.630Z,17.78
2017-04-01T10:03:41.854Z,17.68
2017-04-01T10:04:54.038Z,17.54
2017-04-01T10:06:07.281Z,17.7
2017-04-01T10:07:19.498Z,17.72
2017-04-01T10:08:32.743Z,17.79
2017-04-01T10:09:45.982Z,18.08
2017-04-01T10:10:58.670Z,18.35
2017-04-01T10:12:11.919Z,18.37
2017-04-01T10:13:24.614Z,18.15
2017-04-01T10:14:37.838Z,17.84
2017-04-01T10:15:51.067Z,17.63
2017-04-01T10:17:03.789Z,17.55
2017-04-01T10:18:16.491Z,17.54
2017-04-01T10:19:29.723Z,17.54
2017-04-01T10:20:42.947Z,17.46
2017-04-01T10:21:56.152Z,17.46
2017-04-01T10:23:08.847Z,17.52
2017-04-01T10:24:21.541Z,17.63
2017-04-01T10:25:34.789Z,17.63
2017-04-01T10:26:48.033Z,17.78
2017-04-01T10:28:01.264Z,17.79
2017-04-01T10:29:14.472Z,17.82
2017-04-01T10:30:27.686Z,17.75
2017-04-01T10:31:40.910Z,17.64
2017-04-01T10:32:54.134Z,17.46
2017-04-01T10:34:07.386Z,17.54
2017-04-01T10:35:20.137Z,17.48
2017-04-01T10:36:33.358Z,17.37
2017-04-01T10:37:46.628Z,17.37
2017-04-01T10:38:59.877Z,17.46
2017-04-01T10:40:13.122Z,17.59
2017-04-01T10:41:26.364Z,17.56
2017-04-01T10:42:39.117Z,17.58
2017-04-01T10:43:52.343Z,17.63
2017-04-01T10:45:05.593Z,17.68
2017-04-01T10:46:18.841Z,17.64
2017-04-01T10:47:32.097Z,17.68
2017-04-01T10:48:44.800Z,17.77
2017-04-01T10:49:58.018Z,17.82
2017-04-01T10:51:11.246Z,17.9
2017-04-01T10:52:23.930Z,17.97
2017-04-01T10:53:37.127Z,17.96
2017-04-01T10:54:50.330Z,17.96
2017-04-01T10:56:03.556Z,18.11
2017-04-01T10:57:16.267Z,18.08
2017-04-01T10:58:29.035Z,18.11
2017-04-01T10:59:42.312Z,18.07
2017-04-01T11:00:55.530Z,18.12
2017-04-01T11:02:08.752Z,18.21
2017-04-01T11:03:21.488Z,18.23
2017-04-01T11:04:34.709Z,18.63
2017-04-01T11:05:47.937Z,19.37
2017-04-01T11:07:01.212Z,19.5
2017-04-01T11:08:14.468Z,19.55
2017-04-01T11:09:27.206Z,19.28
2017-04-01T11:10:39.930Z,19.13
2017-04-01T11:11:53.135Z,18.88
2017-04-01T11:13:05.853Z,18.82
2017-04-01T11:14:19.091Z,18.72
2017-04-01T11:15:31.779Z,18.73
2017-04-01T11:16:44.966Z,18.81
2017-04-01T11:17:57.684Z,18.72
2017-04-01T11:19:09.884Z,18.6
2017-04-01T11:20:21.578Z,18.54
2017-04-01T11:21:34.832Z,18.8
2017-04-01T11:22:48.058Z,19.22
2017-04-01T11:24:01.298Z,19.54
2017-04-01T11:25:14.509Z,19.37
2017-04-01T11:26:27.787Z,19.19
2017-04-01T11:27:41.037Z,19.02
2017-04-01T11:28:53.740Z,19.13
2017-04-01T11:30:06.958Z,19.1
2017-04-01T11:31:20.370Z,19.16
2017-04-01T11:32:33.792Z,19.25
2017-04-01T11:33:47.030Z,19.36
2017-04-01T11:35:00.250Z,19.36
2017-04-01T11:36:11.973Z,19.47
2017-04-01T11:37:25.221Z,19.29
2017-04-01T11:38:38.425Z,19.14
2017-04-01T11:39:51.667Z,19.29
2017-04-01T11:41:04.905Z,19.48
2017-04-01T11:42:17.615Z,19.69
2017-04-01T11:43:30.844Z,20.23
2017-04-01T11:44:44.063Z,20.72
2017-04-01T11:45:57.316Z,21.19
2017-04-01T11:47:10.594Z,21.58
2017-04-01T11:48:23.332Z,22.07
2017-04-01T11:49:36.545Z,22.07
2017-04-01T11:50:49.804Z,21.75
2017-04-01T11:52:02.531Z,21.79
2017-04-01T11:53:15.793Z,21.72
2017-04-01T11:54:28.531Z,21.54
2017-04-01T11:55:41.774Z,21.79
2017-04-01T11:56:54.454Z,22.12
2017-04-01T11:58:07.677Z,22.43
2017-04-01T11:59:20.409Z,22.7
2017-04-01T12:00:33.651Z,23.05
2017-04-01T12:01:46.873Z,23.09
2017-04-01T12:03:00.107Z,23.19
2017-04-01T12:04:13.323Z,23
2017-04-01T12:05:26.069Z,22.73
2017-04-01T12:06:38.777Z,22.64
2017-04-01T12:07:51.979Z,22.39
2017-04-01T12:09:05.306Z,22.02
2017-04-01T12:10:18.529Z,21.54
2017-04-01T12:11:31.746Z,21.47
2017-04-01T12:12:45.001Z,21.04
2017-04-01T12:13:57.732Z,21.06
2017-04-01T12:15:10.999Z,21.49
2017-04-01T12:16:24.257Z,21.59
2017-04-01T12:17:37.478Z,21.43
2017-04-01T12:18:50.695Z,21.42
2017-04-01T12:20:03.965Z,21.54
2017-04-01T12:21:16.168Z,21.71
2017-04-01T12:22:28.873Z,21.82
2017-04-01T12:23:42.106Z,21.83
2017-04-01T12:24:54.819Z,22.05
2017-04-01T12:26:08.075Z,22.22
2017-04-01T12:27:21.297Z,22.12
2017-04-01T12:28:34.521Z,21.74
2017-04-01T12:29:47.741Z,21.5
2017-04-01T12:31:00.996Z,21.59
2017-04-01T12:32:13.239Z,21.67
2017-04-01T12:33:25.466Z,21.91
2017-04-01T12:34:38.723Z,21.56
2017-04-01T12:35:51.951Z,21.13
2017-04-01T12:37:05.165Z,21.12
2017-04-01T12:38:18.422Z,21.34
2017-04-01T12:39:31.663Z,21.42
2017-04-01T12:40:44.922Z,21.5
2017-04-01T12:41:58.162Z,21.58
2017-04-01T12:43:10.890Z,21.44
2017-04-01T12:44:23.641Z,21.37
2017-04-01T12:45:36.880Z,21.17
2017-04-01T12:46:50.118Z,21.58
2017-04-01T12:48:03.337Z,22.21
2017-04-01T12:49:16.051Z,22.47
2017-04-01T12:50:29.323Z,22.64
2017-04-01T12:51:42.568Z,22.58
2017-04-01T12:52:55.783Z,22.77
2017-04-01T12:54:09.032Z,22.88
2017-04-01T12:55:21.270Z,23.05
2017-04-01T12:56:34.005Z,23.47
2017-04-01T12:57:47.262Z,23.54
2017-04-01T12:59:00.476Z,23.66
2017-04-01T13:00:13.728Z,23.83
2017-04-01T13:01:26.440Z,23.72
2017-04-01T13:02:39.166Z,23.51
2017-04-01T13:03:52.402Z,22.97
2017-04-01T13:05:05.673Z,22.72
2017-04-01T13:06:18.940Z,22.12
2017-04-01T13:07:31.690Z,21.71
2017-04-01T13:08:44.964Z,21.44
2017-04-01T13:09:56.659Z,21.31
2017-04-01T13:11:09.904Z,21.1
2017-04-01T13:12:22.085Z,21.01
2017-04-01T13:13:35.335Z,20.48
2017-04-01T13:14:48.557Z,20.5
2017-04-01T13:16:01.804Z,20.62
2017-04-01T13:17:15.083Z,21.31
2017-04-01T13:18:28.329Z,21.71
2017-04-01T13:19:41.575Z,22.09
2017-04-01T13:20:54.802Z,22.25
2017-04-01T13:22:08.042Z,22.02
2017-04-01T13:23:20.270Z,22.07
2017-04-01T13:24:33.042Z,22.24
2017-04-01T13:25:46.303Z,22.22
2017-04-01T13:26:59.542Z,22.09
2017-04-01T13:28:12.306Z,22
2017-04-01T13:29:25.545Z,21.69
2017-04-01T13:30:38.300Z,21.52
2017-04-01T13:31:51.551Z,21.21
2017-04-01T13:33:04.773Z,20.8
2017-04-01T13:34:17.971Z,20.74
2017-04-01T13:35:31.217Z,20.77
2017-04-01T13:36:44.428Z,20.74
2017-04-01T13:37:57.157Z,20.48
2017-04-01T13:39:10.388Z,20.58
2017-04-01T13:40:22.613Z,20.98
2017-04-01T13:41:35.857Z,21.27
2017-04-01T13:42:49.101Z,20.82
2017-04-01T13:44:01.348Z,20.2
2017-04-01T13:45:14.619Z,20.13
2017-04-01T13:46:27.832Z,20.38
2017-04-01T13:47:41.077Z,20.47
2017-04-01T13:48:54.337Z,20.52
2017-04-01T13:50:06.542Z,20.72
2017-04-01T13:51:19.826Z,20.87
2017-04-01T13:52:32.532Z,20.95
2017-04-01T13:53:45.305Z,21.22
2017-04-01T13:54:58.019Z,21.72
2017-04-01T13:56:10.764Z,22.42
2017-04-01T13:57:24.024Z,22.79
2017-04-01T13:58:37.294Z,23
2017-04-01T13:59:50.002Z,23.2
2017-04-01T14:01:02.219Z,23.54
2017-04-01T14:02:15.447Z,23.54
2017-04-01T14:03:28.678Z,23.4
2017-04-01T14:04:41.913Z,23.58
2017-04-01T14:05:53.607Z,23.69
2017-04-01T14:07:06.901Z,23.48
2017-04-01T14:08:19.674Z,23.35
2017-04-01T14:09:32.396Z,23.16
2017-04-01T14:10:45.647Z,23.38
2017-04-01T14:11:58.370Z,23.95
2017-04-01T14:13:11.611Z,23.85
2017-04-01T14:14:24.330Z,23.46
2017-04-01T14:15:37.080Z,23
2017-04-01T14:16:50.330Z,23.25
2017-04-01T14:18:03.571Z,23.61
2017-04-01T14:19:16.306Z,23.75
2017-04-01T14:20:29.084Z,23.65
2017-04-01T14:21:41.856Z,23.31
2017-04-01T14:22:55.115Z,23.07
2017-04-01T14:24:08.382Z,22.83
2017-04-01T14:25:21.630Z,22.83
2017-04-01T14:26:34.901Z,23.09
2017-04-01T14:27:48.124Z,23.57
2017-04-01T14:29:01.381Z,23.95
2017-04-01T14:30:14.112Z,23.9
2017-04-01T14:31:27.358Z,23.93
2017-04-01T14:32:40.603Z,23.83
2017-04-01T14:33:53.839Z,23.55
2017-04-01T14:35:07.083Z,23.83
2017-04-01T14:36:20.382Z,24.06
2017-04-01T14:37:32.591Z,24.35
2017-04-01T14:38:45.344Z,24.21
2017-04-01T14:39:57.571Z,24.09
2017-04-01T14:41:09.843Z,24.13
2017-04-01T14:42:23.110Z,24.21
2017-04-01T14:43:35.303Z,24.4
2017-04-01T14:44:48.566Z,24.12
2017-04-01T14:46:01.842Z,23.94
2017-04-01T14:47:15.108Z,23.95
2017-04-01T14:48:28.345Z,24.12
2017-04-01T14:49:41.062Z,23.94
2017-04-01T14:50:54.308Z,23.75
2017-04-01T14:52:07.529Z,23.98
2017-04-01T14:53:20.263Z,24.55
2017-04-01T14:54:33.010Z,24.67
2017-04-01T14:55:46.271Z,24.85
2017-04-01T14:56:59.508Z,24.88
2017-04-01T14:58:12.722Z,25.15
2017-04-01T14:59:24.947Z,25.3
2017-04-01T15:00:38.171Z,25.25
2017-04-01T15:01:51.385Z,24.6
2017-04-01T15:03:04.608Z,24.4
2017-04-01T15:04:17.813Z,23.93
2017-04-01T15:05:30.522Z,24.18
2017-04-01T15:06:43.279Z,24.47
2017-04-01T15:07:56.499Z,25.03
2017-04-01T15:09:09.240Z,24.87
2017-04-01T15:10:21.982Z,24.5
2017-04-01T15:11:34.726Z,24.65
2017-04-01T15:12:47.963Z,24.84
2017-04-01T15:14:01.219Z,25.38
2017-04-01T15:15:13.926Z,25.52
2017-04-01T15:16:27.185Z,25.13
2017-04-01T15:17:39.943Z,25.17
2017-04-01T15:18:53.206Z,25.55
2017-04-01T15:20:06.473Z,25.43
2017-04-01T15:21:18.699Z,25.62
2017-04-01T15:22:31.916Z,25.45
2017-04-01T15:23:45.196Z,25.09
2017-04-01T15:24:57.901Z,24.84
2017-04-01T15:26:10.649Z,24.99
2017-04-01T15:27:23.908Z,25.27
2017-04-01T15:28:36.654Z,25.43
2017-04-01T15:29:49.880Z,24.91
2017-04-01T15:31:02.617Z,24.32
2017-04-01T15:32:15.858Z,23.88
2017-04-01T15:33:28.634Z,23.84
2017-04-01T15:34:41.848Z,23.84
2017-04-01T15:35:55.086Z,23.93
2017-04-01T15:37:07.818Z,24.18
2017-04-01T15:38:20.546Z,24.43
2017-04-01T15:39:33.794Z,24.34
2017-04-01T15:40:47.015Z,24.02
2017-04-01T15:42:00.223Z,23.61
2017-04-01T15:43:12.991Z,23.51
2017-04-01T15:44:26.283Z,23.25